createdAt,value
2023-03-17T00:01:03.347Z,55.10
2023-03-17T00:03:39.215Z,55.02
2023-03-17T00:06:14.097Z,55.33
2023-03-17T00:08:45.162Z,55.11
2023-03-17T00:11:15.298Z,55.27
2023-03-17T00:13:46.982Z,55.53
2023-03-17T00:16:21.695Z,55.56
2023-03-17T00:18:53.838Z,55.63
2023-03-17T00:21:29.244Z,55.47
2023-03-17T00:24:00.346Z,55.69
2023-03-17T00:26:31.131Z,55.68
2023-03-17T00:29:01.801Z,55.62
2023-03-17T00:31:33.971Z,55.61
2023-03-17T00:34:04.900Z,55.59
2023-03-17T00:36:36.068Z,55.63
2023-03-17T00:39:06.521Z,55.60
2023-03-17T00:41:37.201Z,55.69
2023-03-17T00:44:08.100Z,55.79
2023-03-17T00:46:39.560Z,55.79
2023-03-17T00:51:47.457Z,55.70
2023-03-17T00:54:19.170Z,55.75
2023-03-17T00:56:51.634Z,55.68
2023-03-17T00:59:27.487Z,55.89
2023-03-17T01:01:58.536Z,55.74
2023-03-17T01:04:27.689Z,55.89
2023-03-17T01:06:59.935Z,55.87
2023-03-17T01:09:31.196Z,55.81
2023-03-17T01:12:01.894Z,55.76
2023-03-17T01:14:32.821Z,55.68
2023-03-17T01:17:03.520Z,55.91
2023-03-17T01:19:34.132Z,55.80
2023-03-17T01:22:04.931Z,55.77
2023-03-17T01:24:35.587Z,55.91
2023-03-17T01:27:06.429Z,55.73
2023-03-17T01:29:37.147Z,55.79
2023-03-17T01:32:08.524Z,55.85
2023-03-17T01:34:39.148Z,55.78
2023-03-17T01:37:10.135Z,55.60
2023-03-17T01:39:40.819Z,55.47
2023-03-17T01:42:13.384Z,55.60
2023-03-17T01:44:58.583Z,55.47
2023-03-17T01:47:30.043Z,55.43
2023-03-17T01:50:04.944Z,55.34
2023-03-17T01:52:38.305Z,55.36
2023-03-17T01:55:13.477Z,55.37
2023-03-17T01:57:47.865Z,55.40
2023-03-17T02:00:24.059Z,55.18
2023-03-17T02:02:56.498Z,55.21
2023-03-17T02:05:29.475Z,55.25
2023-03-17T02:08:00.756Z,55.21
2023-03-17T02:10:31.901Z,55.28
2023-03-17T02:13:04.597Z,55.30
2023-03-17T02:15:43.157Z,55.22
2023-03-17T02:18:15.383Z,55.39
2023-03-17T02:21:28.872Z,55.31
2023-03-17T02:24:02.408Z,55.20
2023-03-17T02:26:35.667Z,55.18
2023-03-17T02:29:06.584Z,55.00
2023-03-17T02:31:37.207Z,55.06
2023-03-17T02:34:07.885Z,54.97
2023-03-17T02:36:38.613Z,54.99
2023-03-17T02:39:09.426Z,54.82
2023-03-17T02:41:40.121Z,54.76
2023-03-17T02:44:11.045Z,55.01
2023-03-17T02:46:41.755Z,54.80
2023-03-17T02:49:13.159Z,54.85
2023-03-17T02:51:43.794Z,54.78
2023-03-17T02:54:14.567Z,54.79
2023-03-17T02:56:45.377Z,54.71
2023-03-17T02:59:16.167Z,54.60
2023-03-17T03:01:46.940Z,54.72
2023-03-17T03:04:18.153Z,54.64
2023-03-17T03:06:47.641Z,54.56
2023-03-17T03:09:18.381Z,54.54
2023-03-17T03:11:49.289Z,54.83
2023-03-17T03:14:19.974Z,54.57
2023-03-17T03:16:50.899Z,54.43
2023-03-17T03:19:21.791Z,54.53
2023-03-17T03:21:52.807Z,54.44
2023-03-17T03:24:23.894Z,54.55
2023-03-17T03:26:54.672Z,54.53
2023-03-17T03:29:25.377Z,54.49
2023-03-17T03:31:56.091Z,54.45
2023-03-17T03:34:26.912Z,54.60
2023-03-17T03:36:57.665Z,54.65
2023-03-17T03:39:28.438Z,54.67
2023-03-17T03:41:59.088Z,54.73
2023-03-17T03:44:29.744Z,54.67
2023-03-17T03:47:00.411Z,54.81
2023-03-17T03:49:31.138Z,54.84
2023-03-17T03:52:01.785Z,54.83
2023-03-17T03:54:32.473Z,54.88
2023-03-17T03:57:03.399Z,55.06
2023-03-17T03:59:34.229Z,54.98
2023-03-17T04:02:04.970Z,55.04
2023-03-17T04:04:35.892Z,55.06
2023-03-17T04:07:06.692Z,55.13
2023-03-17T04:09:37.407Z,55.22
2023-03-17T04:12:11.596Z,55.23
2023-03-17T04:14:42.748Z,55.14
2023-03-17T04:17:13.881Z,55.28
2023-03-17T04:19:43.034Z,55.35
2023-03-17T04:22:14.327Z,55.38
2023-03-17T04:24:45.027Z,55.45
2023-03-17T04:27:15.746Z,55.48
2023-03-17T04:29:46.442Z,55.53
2023-03-17T04:32:17.218Z,55.51
2023-03-17T04:34:48.010Z,55.47
2023-03-17T04:37:18.662Z,55.62
2023-03-17T04:39:49.347Z,55.59
2023-03-17T04:42:20.314Z,55.63
2023-03-17T04:44:50.983Z,55.67
2023-03-17T04:47:21.722Z,55.72
2023-03-17T04:49:52.422Z,55.75
2023-03-17T04:52:23.090Z,55.68
2023-03-17T04:54:53.795Z,55.88
2023-03-17T04:57:24.497Z,55.76
2023-03-17T04:59:55.286Z,55.79
2023-03-17T05:02:26.087Z,55.88
2023-03-17T05:04:56.923Z,55.86
2023-03-17T05:07:27.545Z,55.74
2023-03-17T05:09:58.324Z,55.69
2023-03-17T05:12:29.192Z,55.83
2023-03-17T05:14:58.534Z,55.93
2023-03-17T05:17:29.308Z,56.01
2023-03-17T05:19:59.982Z,55.92
2023-03-17T05:22:31.029Z,55.96
2023-03-17T05:25:02.085Z,55.90
2023-03-17T05:27:32.736Z,55.87
2023-03-17T05:30:12.458Z,55.76
2023-03-17T05:32:43.115Z,55.99
2023-03-17T05:35:13.854Z,55.80
2023-03-17T05:37:44.735Z,55.75
2023-03-17T05:40:15.885Z,55.59
2023-03-17T05:42:46.866Z,55.66
2023-03-17T05:45:17.659Z,55.57
2023-03-17T05:47:48.279Z,55.32
2023-03-17T05:50:19.102Z,55.46
2023-03-17T05:52:50.116Z,55.43
2023-03-17T05:55:19.626Z,55.23
2023-03-17T05:57:50.354Z,55.06
2023-03-17T06:00:21.986Z,55.02
2023-03-17T06:02:52.669Z,55.02
2023-03-17T06:05:23.275Z,54.90
2023-03-17T06:07:56.577Z,54.81
2023-03-17T06:10:27.676Z,54.80
2023-03-17T06:12:58.647Z,54.75
2023-03-17T06:15:29.797Z,54.52
2023-03-17T06:17:59.069Z,54.49
2023-03-17T06:20:29.857Z,54.44
2023-03-17T06:23:04.969Z,54.16
2023-03-17T06:25:36.525Z,53.98
2023-03-17T06:28:05.854Z,53.69
2023-03-17T06:30:40.073Z,53.41
2023-03-17T06:33:11.550Z,53.58
2023-03-17T06:35:42.398Z,53.32
2023-03-17T06:38:13.678Z,53.37
2023-03-17T06:40:44.523Z,52.88
2023-03-17T06:43:15.243Z,52.46
2023-03-17T06:45:46.109Z,52.54
2023-03-17T06:48:16.907Z,52.49
2023-03-17T06:50:47.714Z,52.38
2023-03-17T06:53:18.638Z,52.21
2023-03-17T06:55:49.281Z,52.02
2023-03-17T06:58:20.363Z,51.49
2023-03-17T07:00:49.502Z,51.37
2023-03-17T07:03:20.592Z,50.87
2023-03-17T07:05:49.746Z,51.00
2023-03-17T07:08:20.505Z,50.97
2023-03-17T07:10:51.275Z,50.81
2023-03-17T07:13:21.932Z,50.74
2023-03-17T07:15:55.283Z,50.50
2023-03-17T07:18:26.280Z,49.60
2023-03-17T07:20:56.916Z,50.20
2023-03-17T07:23:27.637Z,49.55
2023-03-17T07:25:58.587Z,49.45
2023-03-17T07:28:27.817Z,49.51
2023-03-17T07:30:58.616Z,49.65
2023-03-17T07:33:29.516Z,50.15
2023-03-17T07:36:00.323Z,49.57
2023-03-17T07:38:31.022Z,48.80
2023-03-17T07:41:01.722Z,49.37
2023-03-17T07:43:32.402Z,49.14
2023-03-17T07:46:05.164Z,49.05
2023-03-17T07:48:37.021Z,48.98
2023-03-17T07:51:08.861Z,48.01
2023-03-17T07:53:41.248Z,48.41
2023-03-17T07:56:12.103Z,48.72
2023-03-17T07:58:42.801Z,48.91
2023-03-17T08:01:13.557Z,48.98
2023-03-17T08:03:44.310Z,48.41
2023-03-17T08:06:15.041Z,48.60
2023-03-17T08:08:45.718Z,48.14
2023-03-17T08:11:16.411Z,48.31
2023-03-17T08:13:47.611Z,48.34
2023-03-17T08:16:18.657Z,48.00
2023-03-17T08:18:47.773Z,48.17
2023-03-17T08:21:18.435Z,48.43
2023-03-17T08:23:49.235Z,47.89
2023-03-17T08:26:20.235Z,47.55
2023-03-17T08:28:51.082Z,47.43
2023-03-17T08:31:21.262Z,47.52
2023-03-17T08:33:53.989Z,47.41
2023-03-17T08:36:25.237Z,47.62
2023-03-17T08:38:55.932Z,47.53
2023-03-17T08:41:27.862Z,46.56
2023-03-17T08:43:58.902Z,46.18
2023-03-17T08:46:32.136Z,46.19
2023-03-17T08:49:03.583Z,45.57
2023-03-17T08:51:36.817Z,45.34
2023-03-17T08:54:08.386Z,44.78
2023-03-17T08:56:39.771Z,45.82
2023-03-17T08:59:11.141Z,45.75
2023-03-17T09:01:41.902Z,45.66
2023-03-17T09:04:12.740Z,44.63
2023-03-17T09:06:59.399Z,44.76
2023-03-17T09:09:33.660Z,43.50
2023-03-17T09:12:06.742Z,43.87
2023-03-17T09:14:43.854Z,42.89
2023-03-17T09:17:15.533Z,44.24
2023-03-17T09:19:46.360Z,43.55
2023-03-17T09:22:18.014Z,43.18
2023-03-17T09:24:49.162Z,43.76
2023-03-17T09:27:19.853Z,43.72
2023-03-17T09:29:51.085Z,43.38
2023-03-17T09:32:22.241Z,43.42
2023-03-17T09:34:51.739Z,43.00
2023-03-17T09:37:22.494Z,42.95
2023-03-17T09:39:53.223Z,43.73
2023-03-17T09:42:41.385Z,43.92
2023-03-17T09:45:28.199Z,43.45
2023-03-17T09:48:28.969Z,42.51
2023-03-17T09:51:03.286Z,41.93
2023-03-17T09:53:36.445Z,41.19
2023-03-17T09:56:12.654Z,42.07
2023-03-17T09:58:48.492Z,41.97
2023-03-17T10:01:22.540Z,42.67
2023-03-17T10:03:53.776Z,42.01
2023-03-17T10:06:37.319Z,42.00
2023-03-17T10:09:21.039Z,40.72
2023-03-17T10:12:02.197Z,40.27
2023-03-17T10:14:37.895Z,40.51
2023-03-17T10:17:17.266Z,40.40
2023-03-17T10:19:56.260Z,40.58
2023-03-17T10:22:32.503Z,39.38
2023-03-17T10:25:13.447Z,39.31
2023-03-17T10:27:49.610Z,39.62
2023-03-17T10:30:24.451Z,39.55
2023-03-17T10:33:01.088Z,39.41
2023-03-17T10:35:32.839Z,39.79
2023-03-17T10:38:16.647Z,39.66
2023-03-17T10:40:55.959Z,39.76
2023-03-17T10:43:34.624Z,39.76
2023-03-17T10:46:07.895Z,40.39
2023-03-17T10:48:39.425Z,40.27
2023-03-17T10:51:21.248Z,40.69
2023-03-17T10:53:54.334Z,40.65
2023-03-17T10:56:33.280Z,39.84
2023-03-17T11:02:28.896Z,39.75
2023-03-17T11:05:04.414Z,40.25
2023-03-17T11:07:39.745Z,39.46
2023-03-17T11:10:20.585Z,38.69
2023-03-17T11:12:58.933Z,39.07
2023-03-17T11:15:34.799Z,38.98
2023-03-17T11:18:13.599Z,39.29
2023-03-17T11:20:50.722Z,38.95
2023-03-17T11:23:49.802Z,38.31
2023-03-17T11:26:41.025Z,37.73
2023-03-17T11:29:26.407Z,37.78
2023-03-17T11:32:11.001Z,38.71
2023-03-17T11:34:53.702Z,38.51
2023-03-17T11:37:40.960Z,37.82
2023-03-17T11:40:19.758Z,38.48
2023-03-17T11:43:09.464Z,38.40
2023-03-17T11:45:47.229Z,37.68
2023-03-17T11:48:34.545Z,37.45
2023-03-17T11:51:16.089Z,38.50
2023-03-17T11:53:59.046Z,38.30
2023-03-17T11:56:39.040Z,38.31
2023-03-17T11:59:18.370Z,38.65
2023-03-17T12:01:54.917Z,38.84
2023-03-17T12:04:30.732Z,38.00
2023-03-17T12:07:06.534Z,38.09
2023-03-17T12:09:44.910Z,38.36
2023-03-17T12:12:28.487Z,37.85
2023-03-17T12:15:01.827Z,38.26
2023-03-17T12:17:42.196Z,38.13
2023-03-17T12:20:18.321Z,38.78
2023-03-17T12:22:56.689Z,37.65
2023-03-17T12:25:31.543Z,37.83
2023-03-17T12:28:06.810Z,37.86
2023-03-17T12:30:47.176Z,38.30
2023-03-17T12:33:28.144Z,37.95
2023-03-17T12:35:58.346Z,37.78
2023-03-17T12:38:39.374Z,38.03
2023-03-17T12:41:26.620Z,37.31
2023-03-17T12:44:05.689Z,37.03
2023-03-17T12:46:50.345Z,37.48
2023-03-17T12:50:06.092Z,36.80
2023-03-17T12:52:55.321Z,36.62
2023-03-17T12:55:30.667Z,36.99
2023-03-17T12:58:04.490Z,36.89
2023-03-17T13:00:48.228Z,36.75
2023-03-17T13:03:24.724Z,37.17
2023-03-17T13:06:01.023Z,37.19
2023-03-17T13:08:34.834Z,36.57
2023-03-17T13:11:25.554Z,37.24
2023-03-17T13:14:15.056Z,36.81
2023-03-17T13:16:47.135Z,36.60
2023-03-17T13:19:21.024Z,37.10
2023-03-17T13:22:13.447Z,37.04
2023-03-17T13:24:48.999Z,37.16
2023-03-17T13:27:49.214Z,37.25
2023-03-17T13:30:51.920Z,37.11
2023-03-17T13:33:27.638Z,37.35
2023-03-17T13:36:21.928Z,37.46
2023-03-17T13:39:26.056Z,36.88
2023-03-17T13:42:32.225Z,37.92
2023-03-17T13:45:21.950Z,37.00
2023-03-17T13:47:52.763Z,36.96
2023-03-17T13:50:33.846Z,36.45
2023-03-17T13:53:04.850Z,37.09
2023-03-17T13:55:39.168Z,37.01
2023-03-17T13:58:31.621Z,36.79
2023-03-17T14:01:10.345Z,37.03
2023-03-17T14:03:46.765Z,36.89
2023-03-17T14:06:19.987Z,37.05
2023-03-17T14:08:53.993Z,37.54
2023-03-17T14:11:32.944Z,36.85
2023-03-17T14:14:31.697Z,37.10
2023-03-17T14:17:10.645Z,36.92
2023-03-17T14:19:41.592Z,37.20
2023-03-17T14:22:22.042Z,37.06
2023-03-17T14:24:59.392Z,36.89
2023-03-17T14:27:32.963Z,36.77
2023-03-17T14:30:16.892Z,36.47
2023-03-17T14:32:51.175Z,35.95
2023-03-17T14:35:21.910Z,36.18
2023-03-17T14:37:52.589Z,36.40
2023-03-17T14:40:26.984Z,36.69
2023-03-17T14:42:57.733Z,36.78
2023-03-17T14:45:46.219Z,36.55
2023-03-17T14:48:19.375Z,36.50
2023-03-17T14:50:54.314Z,36.20
2023-03-17T14:53:25.884Z,36.32
2023-03-17T14:55:57.756Z,35.92
2023-03-17T14:58:32.571Z,35.11
2023-03-17T15:01:12.302Z,35.54
2023-03-17T15:03:54.718Z,35.54
2023-03-17T15:06:27.420Z,35.76
2023-03-17T15:08:59.185Z,36.13
2023-03-17T15:11:38.758Z,36.61
2023-03-17T15:14:21.087Z,36.49
2023-03-17T15:16:54.988Z,36.34
2023-03-17T15:19:28.918Z,36.16
2023-03-17T15:22:04.313Z,36.66
2023-03-17T15:24:39.596Z,36.75
2023-03-17T15:27:16.394Z,36.57
2023-03-17T15:29:47.525Z,36.46
2023-03-17T15:32:19.698Z,36.52
2023-03-17T15:34:52.433Z,36.71
2023-03-17T15:37:25.184Z,36.93
2023-03-17T15:39:56.648Z,37.35
2023-03-17T15:42:29.473Z,37.63
2023-03-17T15:45:00.664Z,37.39
2023-03-17T15:47:33.661Z,37.58
2023-03-17T15:50:19.572Z,37.70
2023-03-17T15:52:52.886Z,37.66
2023-03-17T15:55:26.020Z,37.74
2023-03-17T15:57:57.113Z,37.42
2023-03-17T16:00:34.604Z,37.70
2023-03-17T16:03:15.508Z,37.88
2023-03-17T16:05:46.545Z,37.75
2023-03-17T16:08:17.641Z,38.00
2023-03-17T16:10:48.350Z,38.03
2023-03-17T16:13:22.060Z,38.26
2023-03-17T16:16:21.851Z,38.38
2023-03-17T16:18:50.688Z,38.49
2023-03-17T16:21:21.753Z,38.59
2023-03-17T16:23:50.836Z,38.61
2023-03-17T16:26:21.526Z,38.61
2023-03-17T16:28:54.380Z,38.81
2023-03-17T16:31:27.029Z,39.05
2023-03-17T16:33:57.949Z,39.04
2023-03-17T16:36:31.539Z,39.02
2023-03-17T16:39:02.299Z,39.33
2023-03-17T16:41:36.070Z,39.34
2023-03-17T16:44:11.195Z,39.53
2023-03-17T16:46:42.368Z,39.66
2023-03-17T16:49:14.496Z,39.85
2023-03-17T16:51:45.435Z,40.05
2023-03-17T16:54:16.094Z,40.11
2023-03-17T16:56:47.072Z,40.34
2023-03-17T16:59:18.951Z,40.40
2023-03-17T17:01:50.040Z,40.56
2023-03-17T17:04:22.171Z,40.63
2023-03-17T17:06:53.059Z,40.63
2023-03-17T17:09:26.202Z,40.85
2023-03-17T17:11:56.901Z,40.98
2023-03-17T17:14:27.601Z,41.01
2023-03-17T17:17:21.633Z,41.04
2023-03-17T17:19:49.811Z,41.04
2023-03-17T17:22:20.472Z,41.29
2023-03-17T17:24:51.160Z,41.23
2023-03-17T17:27:22.772Z,41.24
2023-03-17T17:29:53.470Z,41.30
2023-03-17T17:32:24.189Z,41.35
2023-03-17T17:34:55.090Z,41.39
2023-03-17T17:37:26.034Z,41.39
2023-03-17T17:39:56.748Z,41.46
2023-03-17T17:42:35.551Z,41.59
2023-03-17T17:45:09.070Z,41.50
2023-03-17T17:47:39.774Z,41.52
2023-03-17T17:50:18.380Z,41.64
2023-03-17T17:52:49.148Z,41.73
2023-03-17T17:55:20.819Z,41.64
2023-03-17T17:57:52.539Z,41.90
2023-03-17T18:00:23.608Z,41.80
2023-03-17T18:02:54.285Z,42.06
2023-03-17T18:05:25.260Z,41.96
2023-03-17T18:07:55.994Z,42.08
2023-03-17T18:10:28.519Z,42.15
2023-03-17T18:13:03.547Z,42.23
2023-03-17T18:15:34.718Z,42.14
2023-03-17T18:18:03.977Z,42.30
2023-03-17T18:20:35.169Z,42.29
2023-03-17T18:23:05.864Z,42.34
2023-03-17T18:25:36.542Z,42.38
2023-03-17T18:28:08.512Z,42.43
2023-03-17T18:30:39.398Z,42.56
2023-03-17T18:33:10.661Z,42.47
2023-03-17T18:35:41.958Z,42.52
2023-03-17T18:38:12.712Z,42.68
2023-03-17T18:40:44.536Z,42.76
2023-03-17T18:43:15.217Z,42.73
2023-03-17T18:45:46.216Z,42.97
2023-03-17T18:48:17.062Z,42.77
2023-03-17T18:50:47.904Z,42.94
2023-03-17T18:53:18.672Z,43.08
2023-03-17T18:55:49.477Z,43.01
2023-03-17T18:58:20.270Z,43.21
2023-03-17T19:00:51.306Z,43.20
2023-03-17T19:03:22.581Z,43.26
2023-03-17T19:05:53.375Z,43.38
2023-03-17T19:08:24.256Z,43.36
2023-03-17T19:10:55.048Z,43.56
2023-03-17T19:13:25.729Z,43.70
2023-03-17T19:15:57.125Z,43.83
2023-03-17T19:18:28.456Z,43.91
2023-03-17T19:20:59.393Z,43.98
2023-03-17T19:23:30.445Z,44.06
2023-03-17T19:26:01.330Z,43.92
2023-03-17T19:28:32.956Z,44.43
2023-03-17T19:31:03.847Z,44.43
2023-03-17T19:33:34.638Z,44.58
2023-03-17T19:36:12.445Z,44.63
2023-03-17T19:38:43.169Z,44.88
2023-03-17T19:41:13.858Z,44.64
2023-03-17T19:43:44.568Z,44.77
2023-03-17T19:46:19.567Z,44.82
2023-03-17T19:48:50.432Z,44.97
2023-03-17T19:51:21.200Z,45.07
2023-03-17T19:53:55.122Z,45.33
2023-03-17T19:56:25.863Z,45.26
2023-03-17T19:58:56.817Z,45.29
2023-03-17T20:01:27.639Z,45.44
2023-03-17T20:03:58.646Z,45.33
2023-03-17T20:06:27.847Z,45.57
2023-03-17T20:08:59.247Z,45.34
2023-03-17T20:11:29.889Z,45.61
2023-03-17T20:14:00.953Z,45.57
2023-03-17T20:16:30.458Z,45.67
2023-03-17T20:19:02.550Z,45.65
2023-03-17T20:21:33.263Z,45.99
2023-03-17T20:24:04.734Z,45.92
2023-03-17T20:26:35.494Z,46.03
2023-03-17T20:29:06.478Z,45.97
2023-03-17T20:31:38.896Z,45.89
2023-03-17T20:34:10.661Z,45.97
2023-03-17T20:36:41.453Z,46.05
2023-03-17T20:39:12.257Z,46.21
2023-03-17T20:41:42.891Z,46.22
2023-03-17T20:44:13.789Z,46.33
2023-03-17T20:46:44.554Z,46.32
2023-03-17T20:49:15.943Z,46.32
2023-03-17T20:51:46.779Z,46.59
2023-03-17T20:54:17.437Z,46.46
2023-03-17T20:56:48.010Z,46.74
2023-03-17T20:59:18.812Z,46.56
2023-03-17T21:01:52.381Z,46.65
2023-03-17T21:04:21.641Z,46.60
2023-03-17T21:06:52.276Z,46.83
2023-03-17T21:09:23.082Z,46.79
2023-03-17T21:11:53.750Z,46.74
2023-03-17T21:14:24.538Z,46.72
2023-03-17T21:16:55.201Z,46.82
2023-03-17T21:19:25.888Z,46.92
2023-03-17T21:21:56.716Z,46.93
2023-03-17T21:24:31.247Z,46.98
2023-03-17T21:27:05.774Z,46.98
2023-03-17T21:29:36.996Z,46.97
2023-03-17T21:32:39.148Z,47.29
2023-03-17T21:35:00.151Z,47.16
2023-03-17T21:37:42.889Z,47.25
2023-03-17T21:40:17.544Z,47.17
2023-03-17T21:42:48.176Z,47.22
2023-03-17T21:45:21.181Z,47.29
2023-03-17T21:47:51.807Z,47.19
2023-03-17T21:50:23.293Z,47.33
2023-03-17T21:52:53.955Z,47.38
2023-03-17T21:55:25.108Z,47.35
2023-03-17T21:58:01.236Z,47.35
2023-03-17T22:00:44.733Z,47.46
2023-03-17T22:03:16.495Z,47.41
2023-03-17T22:05:45.596Z,47.39
2023-03-17T22:08:16.244Z,47.45
2023-03-17T22:10:47.385Z,47.35
2023-03-17T22:13:16.656Z,47.51
2023-03-17T22:15:47.427Z,47.56
2023-03-17T22:18:18.431Z,47.46
2023-03-17T22:20:52.664Z,47.69
2023-03-17T22:23:23.796Z,47.64
2023-03-17T22:25:52.921Z,47.70
2023-03-17T22:28:24.027Z,47.85
2023-03-17T22:30:53.135Z,47.73
2023-03-17T22:33:23.800Z,47.97
2023-03-17T22:35:54.475Z,47.86
2023-03-17T22:38:25.161Z,47.96
2023-03-17T22:41:13.984Z,47.94
2023-03-17T22:43:45.617Z,48.00
2023-03-17T22:46:17.657Z,48.09
2023-03-17T22:48:48.567Z,48.05
2023-03-17T22:51:21.835Z,48.16
2023-03-17T22:53:52.941Z,48.21
2023-03-17T22:56:22.107Z,48.27
2023-03-17T22:58:53.574Z,48.34
2023-03-17T23:01:24.846Z,48.33
2023-03-17T23:03:55.928Z,48.36
2023-03-17T23:06:25.127Z,48.40
2023-03-17T23:08:55.853Z,48.46
2023-03-17T23:11:27.237Z,48.48
2023-03-17T23:13:58.198Z,48.49
2023-03-17T23:16:29.103Z,48.50
2023-03-17T23:18:59.763Z,48.52
2023-03-17T23:21:32.422Z,48.53
2023-03-17T23:24:03.952Z,48.63
2023-03-17T23:26:35.279Z,48.61
2023-03-17T23:29:07.326Z,48.66
2023-03-17T23:31:38.630Z,48.90
2023-03-17T23:34:09.993Z,48.71
2023-03-17T23:36:57.088Z,48.82
2023-03-17T23:39:27.710Z,48.80
2023-03-17T23:41:58.400Z,48.88
2023-03-17T23:44:29.038Z,48.99
2023-03-17T23:46:59.756Z,49.21
2023-03-17T23:49:30.492Z,49.15
2023-03-17T23:52:01.784Z,49.13
2023-03-17T23:54:32.376Z,49.25
2023-03-17T23:57:03.037Z,49.31
2023-03-17T23:59:34.486Z,49.17
